sensor_id;sensor_type;location;lat;lon;timestamp;temperature;humidity
20650;DHT22;10484;48.736;9.332;2023-06-10T00:00:36;19.90;9.50
20650;DHT22;10484;48.736;9.332;2023-06-10T00:03:01;19.90;9.90
20650;DHT22;10484;48.736;9.332;2023-06-10T00:05:27;19.80;10.30
20650;DHT22;10484;48.736;9.332;2023-06-10T00:07:55;19.80;10.70
20650;DHT22;10484;48.736;9.332;2023-06-10T00:10:21;19.70;11.20
20650;DHT22;10484;48.736;9.332;2023-06-10T00:12:47;19.70;11.90
20650;DHT22;10484;48.736;9.332;2023-06-10T00:15:13;19.60;12.20
20650;DHT22;10484;48.736;9.332;2023-06-10T00:17:39;19.60;12.80
20650;DHT22;10484;48.736;9.332;2023-06-10T00:20:07;19.50;13.20
20650;DHT22;10484;48.736;9.332;2023-06-10T00:22:34;19.50;16.80
20650;DHT22;10484;48.736;9.332;2023-06-10T00:25:00;19.40;14.10
20650;DHT22;10484;48.736;9.332;2023-06-10T00:27:26;19.40;14.60
20650;DHT22;10484;48.736;9.332;2023-06-10T00:29:56;19.30;15.00
20650;DHT22;10484;48.736;9.332;2023-06-10T00:32:22;19.30;15.70
20650;DHT22;10484;48.736;9.332;2023-06-10T00:34:47;19.20;15.80
20650;DHT22;10484;48.736;9.332;2023-06-10T00:37:13;19.20;16.20
20650;DHT22;10484;48.736;9.332;2023-06-10T00:39:39;19.20;18.50
20650;DHT22;10484;48.736;9.332;2023-06-10T00:42:05;19.20;17.40
20650;DHT22;10484;48.736;9.332;2023-06-10T00:44:32;19.10;17.60
20650;DHT22;10484;48.736;9.332;2023-06-10T00:46:57;19.10;18.20
20650;DHT22;10484;48.736;9.332;2023-06-10T00:49:23;19.00;18.70
20650;DHT22;10484;48.736;9.332;2023-06-10T00:51:51;19.00;19.20
20650;DHT22;10484;48.736;9.332;2023-06-10T00:54:17;19.00;19.70
20650;DHT22;10484;48.736;9.332;2023-06-10T00:56:43;19.00;20.20
20650;DHT22;10484;48.736;9.332;2023-06-10T00:59:09;18.90;20.60
20650;DHT22;10484;48.736;9.332;2023-06-10T01:01:35;18.90;20.80
20650;DHT22;10484;48.736;9.332;2023-06-10T01:04:03;18.90;21.30
20650;DHT22;10484;48.736;9.332;2023-06-10T01:06:59;18.80;21.80
20650;DHT22;10484;48.736;9.332;2023-06-10T01:09:36;18.80;22.10
20650;DHT22;10484;48.736;9.332;2023-06-10T01:12:11;18.80;25.90
20650;DHT22;10484;48.736;9.332;2023-06-10T01:14:37;18.70;23.30
20650;DHT22;10484;48.736;9.332;2023-06-10T01:17:04;18.70;23.50
20650;DHT22;10484;48.736;9.332;2023-06-10T01:19:32;18.70;24.00
20650;DHT22;10484;48.736;9.332;2023-06-10T01:21:59;18.60;24.50
20650;DHT22;10484;48.736;9.332;2023-06-10T01:24:26;18.60;25.20
20650;DHT22;10484;48.736;9.332;2023-06-10T01:26:54;18.50;25.80
20650;DHT22;10484;48.736;9.332;2023-06-10T01:29:31;18.50;26.20
20650;DHT22;10484;48.736;9.332;2023-06-10T01:32:50;18.40;26.90
20650;DHT22;10484;48.736;9.332;2023-06-10T01:34:56;18.40;27.20
20650;DHT22;10484;48.736;9.332;2023-06-10T01:37:24;18.40;27.40
20650;DHT22;10484;48.736;9.332;2023-06-10T01:39:52;18.30;27.70
20650;DHT22;10484;48.736;9.332;2023-06-10T01:42:20;18.30;28.70
20650;DHT22;10484;48.736;9.332;2023-06-10T01:44:46;18.30;29.00
20650;DHT22;10484;48.736;9.332;2023-06-10T01:47:12;18.20;29.30
20650;DHT22;10484;48.736;9.332;2023-06-10T01:49:38;18.20;29.80
20650;DHT22;10484;48.736;9.332;2023-06-10T01:52:04;18.20;30.40
20650;DHT22;10484;48.736;9.332;2023-06-10T01:54:29;18.20;31.20
20650;DHT22;10484;48.736;9.332;2023-06-10T01:56:55;18.10;31.60
20650;DHT22;10484;48.736;9.332;2023-06-10T01:59:20;18.10;32.70
20650;DHT22;10484;48.736;9.332;2023-06-10T02:01:46;18.00;33.60
20650;DHT22;10484;48.736;9.332;2023-06-10T02:04:12;18.00;34.20
20650;DHT22;10484;48.736;9.332;2023-06-10T02:06:37;18.00;35.30
20650;DHT22;10484;48.736;9.332;2023-06-10T02:09:03;17.90;37.10
20650;DHT22;10484;48.736;9.332;2023-06-10T02:11:28;17.90;38.30
20650;DHT22;10484;48.736;9.332;2023-06-10T02:13:54;17.90;39.40
20650;DHT22;10484;48.736;9.332;2023-06-10T02:16:20;17.80;40.80
20650;DHT22;10484;48.736;9.332;2023-06-10T02:18:46;17.80;40.60
20650;DHT22;10484;48.736;9.332;2023-06-10T02:21:14;17.80;41.00
20650;DHT22;10484;48.736;9.332;2023-06-10T02:23:39;17.80;41.50
20650;DHT22;10484;48.736;9.332;2023-06-10T02:26:05;17.70;41.80
20650;DHT22;10484;48.736;9.332;2023-06-10T02:28:31;17.70;42.00
20650;DHT22;10484;48.736;9.332;2023-06-10T02:30:57;17.70;42.00
20650;DHT22;10484;48.736;9.332;2023-06-10T02:33:23;17.70;42.00
20650;DHT22;10484;48.736;9.332;2023-06-10T02:35:49;17.70;42.10
20650;DHT22;10484;48.736;9.332;2023-06-10T02:38:15;17.60;42.00
20650;DHT22;10484;48.736;9.332;2023-06-10T02:40:40;17.60;42.10
20650;DHT22;10484;48.736;9.332;2023-06-10T02:43:06;17.50;42.10
20650;DHT22;10484;48.736;9.332;2023-06-10T02:45:32;17.50;42.10
20650;DHT22;10484;48.736;9.332;2023-06-10T02:47:57;17.50;42.20
20650;DHT22;10484;48.736;9.332;2023-06-10T02:50:23;17.40;42.20
20650;DHT22;10484;48.736;9.332;2023-06-10T02:52:48;17.40;42.60
20650;DHT22;10484;48.736;9.332;2023-06-10T02:55:15;17.30;42.40
20650;DHT22;10484;48.736;9.332;2023-06-10T02:57:40;17.30;42.50
20650;DHT22;10484;48.736;9.332;2023-06-10T03:00:06;17.30;42.50
20650;DHT22;10484;48.736;9.332;2023-06-10T03:02:36;17.20;42.40
20650;DHT22;10484;48.736;9.332;2023-06-10T03:05:04;17.20;42.50
20650;DHT22;10484;48.736;9.332;2023-06-10T03:07:30;17.10;42.50
20650;DHT22;10484;48.736;9.332;2023-06-10T03:09:56;17.10;42.40
20650;DHT22;10484;48.736;9.332;2023-06-10T03:12:21;17.00;42.30
20650;DHT22;10484;48.736;9.332;2023-06-10T03:14:47;17.00;42.30
20650;DHT22;10484;48.736;9.332;2023-06-10T03:17:13;16.90;42.30
20650;DHT22;10484;48.736;9.332;2023-06-10T03:19:38;17.00;42.30
20650;DHT22;10484;48.736;9.332;2023-06-10T03:22:12;16.90;42.20
20650;DHT22;10484;48.736;9.332;2023-06-10T03:24:37;16.90;42.10
20650;DHT22;10484;48.736;9.332;2023-06-10T03:27:07;16.90;42.20
20650;DHT22;10484;48.736;9.332;2023-06-10T03:29:33;16.80;42.10
20650;DHT22;10484;48.736;9.332;2023-06-10T03:31:59;16.80;42.30
20650;DHT22;10484;48.736;9.332;2023-06-10T03:34:25;16.80;42.00
20650;DHT22;10484;48.736;9.332;2023-06-10T03:36:50;16.70;42.00
20650;DHT22;10484;48.736;9.332;2023-06-10T03:39:16;16.70;42.00
20650;DHT22;10484;48.736;9.332;2023-06-10T03:41:41;16.70;42.00
20650;DHT22;10484;48.736;9.332;2023-06-10T03:44:07;16.70;42.10
20650;DHT22;10484;48.736;9.332;2023-06-10T03:46:33;16.70;42.10
20650;DHT22;10484;48.736;9.332;2023-06-10T03:48:58;16.70;42.30
20650;DHT22;10484;48.736;9.332;2023-06-10T03:51:26;16.60;42.00
20650;DHT22;10484;48.736;9.332;2023-06-10T03:53:52;16.60;42.10
20650;DHT22;10484;48.736;9.332;2023-06-10T03:56:17;16.60;42.10
20650;DHT22;10484;48.736;9.332;2023-06-10T03:58:43;16.60;42.00
20650;DHT22;10484;48.736;9.332;2023-06-10T04:01:10;16.60;41.90
20650;DHT22;10484;48.736;9.332;2023-06-10T04:03:36;16.50;41.80
20650;DHT22;10484;48.736;9.332;2023-06-10T04:06:01;16.50;41.80
20650;DHT22;10484;48.736;9.332;2023-06-10T04:08:28;16.50;46.00
20650;DHT22;10484;48.736;9.332;2023-06-10T04:10:53;16.50;42.10
20650;DHT22;10484;48.736;9.332;2023-06-10T04:13:19;16.50;41.90
20650;DHT22;10484;48.736;9.332;2023-06-10T04:15:45;16.40;42.00
20650;DHT22;10484;48.736;9.332;2023-06-10T04:18:10;16.50;42.40
20650;DHT22;10484;48.736;9.332;2023-06-10T04:20:36;16.40;42.20
20650;DHT22;10484;48.736;9.332;2023-06-10T04:23:02;16.40;42.30
20650;DHT22;10484;48.736;9.332;2023-06-10T04:25:27;16.40;42.30
20650;DHT22;10484;48.736;9.332;2023-06-10T04:27:54;16.40;42.70
20650;DHT22;10484;48.736;9.332;2023-06-10T04:30:20;16.40;42.70
20650;DHT22;10484;48.736;9.332;2023-06-10T04:32:45;16.40;42.90
20650;DHT22;10484;48.736;9.332;2023-06-10T04:35:12;16.40;43.60
20650;DHT22;10484;48.736;9.332;2023-06-10T04:37:39;16.40;45.10
20650;DHT22;10484;48.736;9.332;2023-06-10T04:40:06;16.40;46.90
20650;DHT22;10484;48.736;9.332;2023-06-10T04:42:32;16.40;49.40
20650;DHT22;10484;48.736;9.332;2023-06-10T04:44:57;16.40;50.80
20650;DHT22;10484;48.736;9.332;2023-06-10T04:47:23;16.40;51.50
20650;DHT22;10484;48.736;9.332;2023-06-10T04:49:49;16.40;52.40
20650;DHT22;10484;48.736;9.332;2023-06-10T04:52:16;16.40;53.30
20650;DHT22;10484;48.736;9.332;2023-06-10T04:54:43;16.40;54.00
20650;DHT22;10484;48.736;9.332;2023-06-10T04:57:08;16.40;55.00
20650;DHT22;10484;48.736;9.332;2023-06-10T04:59:37;16.50;56.30
20650;DHT22;10484;48.736;9.332;2023-06-10T05:02:04;16.50;57.00
20650;DHT22;10484;48.736;9.332;2023-06-10T05:04:30;16.50;57.90
20650;DHT22;10484;48.736;9.332;2023-06-10T05:06:56;16.50;58.80
20650;DHT22;10484;48.736;9.332;2023-06-10T05:09:22;16.50;59.60
20650;DHT22;10484;48.736;9.332;2023-06-10T05:11:47;16.60;60.30
20650;DHT22;10484;48.736;9.332;2023-06-10T05:14:13;16.60;61.10
20650;DHT22;10484;48.736;9.332;2023-06-10T05:16:39;16.60;61.90
20650;DHT22;10484;48.736;9.332;2023-06-10T05:19:05;16.60;62.60
20650;DHT22;10484;48.736;9.332;2023-06-10T05:21:31;16.70;63.00
20650;DHT22;10484;48.736;9.332;2023-06-10T05:23:56;16.70;63.60
20650;DHT22;10484;48.736;9.332;2023-06-10T05:26:22;16.80;63.80
20650;DHT22;10484;48.736;9.332;2023-06-10T05:28:47;16.80;64.30
20650;DHT22;10484;48.736;9.332;2023-06-10T05:31:13;16.80;64.80
20650;DHT22;10484;48.736;9.332;2023-06-10T05:33:39;16.80;65.80
20650;DHT22;10484;48.736;9.332;2023-06-10T05:36:05;16.90;66.90
20650;DHT22;10484;48.736;9.332;2023-06-10T05:38:31;16.90;67.80
20650;DHT22;10484;48.736;9.332;2023-06-10T05:40:56;16.90;68.10
20650;DHT22;10484;48.736;9.332;2023-06-10T05:43:22;16.90;68.30
20650;DHT22;10484;48.736;9.332;2023-06-10T05:45:48;16.90;68.70
20650;DHT22;10484;48.736;9.332;2023-06-10T05:48:13;17.00;68.40
20650;DHT22;10484;48.736;9.332;2023-06-10T05:50:39;17.00;67.50
20650;DHT22;10484;48.736;9.332;2023-06-10T05:53:07;17.10;66.80
20650;DHT22;10484;48.736;9.332;2023-06-10T05:55:43;17.10;66.30
20650;DHT22;10484;48.736;9.332;2023-06-10T05:58:09;17.20;65.70
20650;DHT22;10484;48.736;9.332;2023-06-10T06:00:35;17.20;65.00
20650;DHT22;10484;48.736;9.332;2023-06-10T06:03:01;17.30;64.40
20650;DHT22;10484;48.736;9.332;2023-06-10T06:05:26;17.30;63.70
20650;DHT22;10484;48.736;9.332;2023-06-10T06:07:52;17.30;63.10
20650;DHT22;10484;48.736;9.332;2023-06-10T06:10:18;17.40;62.50
20650;DHT22;10484;48.736;9.332;2023-06-10T06:12:44;17.40;62.10
20650;DHT22;10484;48.736;9.332;2023-06-10T06:15:11;17.50;61.10
20650;DHT22;10484;48.736;9.332;2023-06-10T06:17:36;17.50;60.30
20650;DHT22;10484;48.736;9.332;2023-06-10T06:20:03;17.50;60.00
20650;DHT22;10484;48.736;9.332;2023-06-10T06:22:29;17.60;60.40
20650;DHT22;10484;48.736;9.332;2023-06-10T06:24:54;17.60;59.70
20650;DHT22;10484;48.736;9.332;2023-06-10T06:27:20;17.70;60.00
20650;DHT22;10484;48.736;9.332;2023-06-10T06:29:46;17.70;60.10
20650;DHT22;10484;48.736;9.332;2023-06-10T06:32:12;17.80;59.60
20650;DHT22;10484;48.736;9.332;2023-06-10T06:34:38;17.80;63.80
20650;DHT22;10484;48.736;9.332;2023-06-10T06:37:03;17.80;58.70
20650;DHT22;10484;48.736;9.332;2023-06-10T06:39:29;17.90;58.40
20650;DHT22;10484;48.736;9.332;2023-06-10T06:41:55;17.90;58.20
20650;DHT22;10484;48.736;9.332;2023-06-10T06:44:20;18.00;58.00
20650;DHT22;10484;48.736;9.332;2023-06-10T06:46:46;18.10;57.60
20650;DHT22;10484;48.736;9.332;2023-06-10T06:49:11;18.10;57.40
20650;DHT22;10484;48.736;9.332;2023-06-10T06:51:37;18.10;57.00
20650;DHT22;10484;48.736;9.332;2023-06-10T06:54:02;18.20;57.40
20650;DHT22;10484;48.736;9.332;2023-06-10T06:56:28;18.20;57.90
20650;DHT22;10484;48.736;9.332;2023-06-10T06:58:54;18.30;57.60
20650;DHT22;10484;48.736;9.332;2023-06-10T07:01:20;18.40;57.80
20650;DHT22;10484;48.736;9.332;2023-06-10T07:03:45;18.50;57.60
20650;DHT22;10484;48.736;9.332;2023-06-10T07:06:12;18.40;56.70
20650;DHT22;10484;48.736;9.332;2023-06-10T07:08:38;18.50;56.40
20650;DHT22;10484;48.736;9.332;2023-06-10T07:11:03;18.60;56.50
20650;DHT22;10484;48.736;9.332;2023-06-10T07:13:29;18.70;56.40
20650;DHT22;10484;48.736;9.332;2023-06-10T07:15:55;18.70;55.10
20650;DHT22;10484;48.736;9.332;2023-06-10T07:18:20;18.80;54.90
20650;DHT22;10484;48.736;9.332;2023-06-10T07:20:46;18.90;54.90
20650;DHT22;10484;48.736;9.332;2023-06-10T07:23:11;19.00;55.30
20650;DHT22;10484;48.736;9.332;2023-06-10T07:25:37;19.10;54.90
20650;DHT22;10484;48.736;9.332;2023-06-10T07:28:03;19.20;54.50
20650;DHT22;10484;48.736;9.332;2023-06-10T07:30:28;19.30;52.80
20650;DHT22;10484;48.736;9.332;2023-06-10T07:32:54;19.30;51.20
20650;DHT22;10484;48.736;9.332;2023-06-10T07:35:21;19.30;51.00
20650;DHT22;10484;48.736;9.332;2023-06-10T07:37:46;19.30;50.70
20650;DHT22;10484;48.736;9.332;2023-06-10T07:40:12;19.50;50.50
20650;DHT22;10484;48.736;9.332;2023-06-10T07:42:38;19.50;47.60
20650;DHT22;10484;48.736;9.332;2023-06-10T07:45:04;19.60;47.50
20650;DHT22;10484;48.736;9.332;2023-06-10T07:47:30;19.70;47.10
20650;DHT22;10484;48.736;9.332;2023-06-10T07:49:55;19.80;46.60
20650;DHT22;10484;48.736;9.332;2023-06-10T07:52:21;19.90;46.20
20650;DHT22;10484;48.736;9.332;2023-06-10T07:54:47;20.00;45.80
20650;DHT22;10484;48.736;9.332;2023-06-10T07:57:12;20.10;46.00
20650;DHT22;10484;48.736;9.332;2023-06-10T07:59:38;20.20;45.70
20650;DHT22;10484;48.736;9.332;2023-06-10T08:02:04;20.20;45.50
20650;DHT22;10484;48.736;9.332;2023-06-10T08:04:30;20.30;45.80
20650;DHT22;10484;48.736;9.332;2023-06-10T08:06:56;20.40;45.60
20650;DHT22;10484;48.736;9.332;2023-06-10T08:09:22;20.50;45.60
20650;DHT22;10484;48.736;9.332;2023-06-10T08:11:48;20.70;49.90
20650;DHT22;10484;48.736;9.332;2023-06-10T08:14:15;20.70;45.70
20650;DHT22;10484;48.736;9.332;2023-06-10T08:16:43;20.80;45.60
20650;DHT22;10484;48.736;9.332;2023-06-10T08:19:09;20.90;45.70
20650;DHT22;10484;48.736;9.332;2023-06-10T08:21:35;21.00;45.80
20650;DHT22;10484;48.736;9.332;2023-06-10T08:24:02;21.10;45.80
20650;DHT22;10484;48.736;9.332;2023-06-10T08:26:28;21.20;45.90
20650;DHT22;10484;48.736;9.332;2023-06-10T08:28:54;21.30;46.00
20650;DHT22;10484;48.736;9.332;2023-06-10T08:31:20;21.50;46.20
20650;DHT22;10484;48.736;9.332;2023-06-10T08:33:46;21.70;46.40
20650;DHT22;10484;48.736;9.332;2023-06-10T08:36:12;21.80;46.50
20650;DHT22;10484;48.736;9.332;2023-06-10T08:38:38;21.90;46.50
20650;DHT22;10484;48.736;9.332;2023-06-10T08:41:05;22.00;46.80
20650;DHT22;10484;48.736;9.332;2023-06-10T08:43:35;22.10;46.70
20650;DHT22;10484;48.736;9.332;2023-06-10T08:46:03;22.20;46.80
20650;DHT22;10484;48.736;9.332;2023-06-10T08:48:34;22.30;46.90
20650;DHT22;10484;48.736;9.332;2023-06-10T08:51:00;22.50;47.00
20650;DHT22;10484;48.736;9.332;2023-06-10T08:53:30;22.50;47.10
20650;DHT22;10484;48.736;9.332;2023-06-10T08:55:59;22.60;47.10
20650;DHT22;10484;48.736;9.332;2023-06-10T08:58:27;22.60;47.20
20650;DHT22;10484;48.736;9.332;2023-06-10T09:00:53;22.70;47.50
20650;DHT22;10484;48.736;9.332;2023-06-10T09:03:19;22.80;47.20
20650;DHT22;10484;48.736;9.332;2023-06-10T09:05:46;22.90;47.20
20650;DHT22;10484;48.736;9.332;2023-06-10T09:08:11;22.90;47.10
20650;DHT22;10484;48.736;9.332;2023-06-10T09:10:38;23.00;47.30
20650;DHT22;10484;48.736;9.332;2023-06-10T09:13:03;23.10;47.00
20650;DHT22;10484;48.736;9.332;2023-06-10T09:15:29;23.20;47.00
20650;DHT22;10484;48.736;9.332;2023-06-10T09:17:54;23.30;47.00
20650;DHT22;10484;48.736;9.332;2023-06-10T09:20:20;23.50;46.90
20650;DHT22;10484;48.736;9.332;2023-06-10T09:22:46;23.60;46.30
20650;DHT22;10484;48.736;9.332;2023-06-10T09:25:13;23.80;46.00
20650;DHT22;10484;48.736;9.332;2023-06-10T09:27:45;23.90;45.90
20650;DHT22;10484;48.736;9.332;2023-06-10T09:30:27;24.10;39.00
20650;DHT22;10484;48.736;9.332;2023-06-10T09:32:58;24.20;37.20
20650;DHT22;10484;48.736;9.332;2023-06-10T09:35:24;24.40;35.60
20650;DHT22;10484;48.736;9.332;2023-06-10T09:37:52;24.50;34.00
20650;DHT22;10484;48.736;9.332;2023-06-10T09:40:18;24.60;33.10
20650;DHT22;10484;48.736;9.332;2023-06-10T09:42:43;24.70;31.90
20650;DHT22;10484;48.736;9.332;2023-06-10T09:45:09;24.80;30.00
20650;DHT22;10484;48.736;9.332;2023-06-10T09:47:35;24.90;30.00
20650;DHT22;10484;48.736;9.332;2023-06-10T09:50:00;25.00;33.70
20650;DHT22;10484;48.736;9.332;2023-06-10T09:52:28;25.00;29.20
20650;DHT22;10484;48.736;9.332;2023-06-10T09:54:59;25.10;28.00
20650;DHT22;10484;48.736;9.332;2023-06-10T09:57:25;25.20;26.70
20650;DHT22;10484;48.736;9.332;2023-06-10T09:59:54;25.20;25.80
20650;DHT22;10484;48.736;9.332;2023-06-10T10:02:20;25.30;25.60
20650;DHT22;10484;48.736;9.332;2023-06-10T10:04:46;25.40;24.80
20650;DHT22;10484;48.736;9.332;2023-06-10T10:07:13;25.60;24.00
20650;DHT22;10484;48.736;9.332;2023-06-10T10:09:39;25.70;23.30
20650;DHT22;10484;48.736;9.332;2023-06-10T10:12:15;25.80;22.80
20650;DHT22;10484;48.736;9.332;2023-06-10T10:14:46;25.80;21.80
20650;DHT22;10484;48.736;9.332;2023-06-10T10:17:13;25.90;21.10
20650;DHT22;10484;48.736;9.332;2023-06-10T10:20:02;25.90;20.60
20650;DHT22;10484;48.736;9.332;2023-06-10T10:22:35;26.10;19.50
20650;DHT22;10484;48.736;9.332;2023-06-10T10:25:05;26.10;18.60
20650;DHT22;10484;48.736;9.332;2023-06-10T10:27:36;26.30;17.50
20650;DHT22;10484;48.736;9.332;2023-06-10T10:30:06;26.40;16.70
20650;DHT22;10484;48.736;9.332;2023-06-10T10:32:38;26.50;15.70
20650;DHT22;10484;48.736;9.332;2023-06-10T10:35:21;26.60;14.30
20650;DHT22;10484;48.736;9.332;2023-06-10T10:37:54;26.70;13.20
20650;DHT22;10484;48.736;9.332;2023-06-10T10:40:21;26.80;12.30
20650;DHT22;10484;48.736;9.332;2023-06-10T10:42:49;27.00;11.40
20650;DHT22;10484;48.736;9.332;2023-06-10T10:45:15;27.00;10.50
20650;DHT22;10484;48.736;9.332;2023-06-10T10:47:41;27.10;9.80
20650;DHT22;10484;48.736;9.332;2023-06-10T10:50:19;27.20;9.20
20650;DHT22;10484;48.736;9.332;2023-06-10T10:52:52;27.30;7.80
20650;DHT22;10484;48.736;9.332;2023-06-10T10:55:19;27.40;6.80
20650;DHT22;10484;48.736;9.332;2023-06-10T10:57:44;27.50;5.50
20650;DHT22;10484;48.736;9.332;2023-06-10T11:00:11;27.60;5.10
20650;DHT22;10484;48.736;9.332;2023-06-10T11:02:40;27.70;4.40
20650;DHT22;10484;48.736;9.332;2023-06-10T11:05:09;27.80;3.50
20650;DHT22;10484;48.736;9.332;2023-06-10T11:07:35;27.90;2.70
20650;DHT22;10484;48.736;9.332;2023-06-10T11:10:12;28.00;2.00
20650;DHT22;10484;48.736;9.332;2023-06-10T11:15:32;28.20;1.00
20650;DHT22;10484;48.736;9.332;2023-06-10T11:18:25;28.20;1.00
20650;DHT22;10484;48.736;9.332;2023-06-10T11:20:53;28.20;1.00
20650;DHT22;10484;48.736;9.332;2023-06-10T11:23:30;28.20;1.00
20650;DHT22;10484;48.736;9.332;2023-06-10T11:31:29;28.60;1.00
20650;DHT22;10484;48.736;9.332;2023-06-10T11:34:05;28.70;1.00
20650;DHT22;10484;48.736;9.332;2023-06-10T11:36:39;28.80;1.00
20650;DHT22;10484;48.736;9.332;2023-06-10T11:39:06;28.90;1.00
20650;DHT22;10484;48.736;9.332;2023-06-10T11:41:33;28.90;1.00
20650;DHT22;10484;48.736;9.332;2023-06-10T11:44:13;29.10;1.00
20650;DHT22;10484;48.736;9.332;2023-06-10T11:46:39;29.10;1.00
20650;DHT22;10484;48.736;9.332;2023-06-10T11:49:06;29.20;1.00
20650;DHT22;10484;48.736;9.332;2023-06-10T11:51:39;29.20;1.00
20650;DHT22;10484;48.736;9.332;2023-06-10T11:54:08;29.20;1.00
20650;DHT22;10484;48.736;9.332;2023-06-10T11:56:34;29.20;1.00
20650;DHT22;10484;48.736;9.332;2023-06-10T11:59:02;29.20;1.00
20650;DHT22;10484;48.736;9.332;2023-06-10T12:01:34;29.10;1.00
20650;DHT22;10484;48.736;9.332;2023-06-10T12:04:05;29.10;1.00
20650;DHT22;10484;48.736;9.332;2023-06-10T12:06:48;29.20;1.00
20650;DHT22;10484;48.736;9.332;2023-06-10T12:09:24;29.30;1.00
20650;DHT22;10484;48.736;9.332;2023-06-10T12:11:57;29.50;1.00
20650;DHT22;10484;48.736;9.332;2023-06-10T12:14:59;29.50;1.00
20650;DHT22;10484;48.736;9.332;2023-06-10T12:19:59;29.50;1.00
20650;DHT22;10484;48.736;9.332;2023-06-10T12:22:25;29.40;1.00
20650;DHT22;10484;48.736;9.332;2023-06-10T12:24:58;29.50;1.00
20650;DHT22;10484;48.736;9.332;2023-06-10T12:27:28;29.50;1.00
20650;DHT22;10484;48.736;9.332;2023-06-10T12:29:55;29.50;1.00
20650;DHT22;10484;48.736;9.332;2023-06-10T12:32:21;29.60;1.00
20650;DHT22;10484;48.736;9.332;2023-06-10T12:35:02;29.70;1.00
20650;DHT22;10484;48.736;9.332;2023-06-10T12:37:29;29.90;1.00
20650;DHT22;10484;48.736;9.332;2023-06-10T12:39:55;30.00;1.00
20650;DHT22;10484;48.736;9.332;2023-06-10T12:42:22;30.00;1.00
20650;DHT22;10484;48.736;9.332;2023-06-10T12:44:53;30.10;1.00
20650;DHT22;10484;48.736;9.332;2023-06-10T12:47:19;30.20;1.00
20650;DHT22;10484;48.736;9.332;2023-06-10T12:49:44;30.20;1.00
20650;DHT22;10484;48.736;9.332;2023-06-10T12:52:10;30.20;1.00
20650;DHT22;10484;48.736;9.332;2023-06-10T12:54:35;30.10;1.00
20650;DHT22;10484;48.736;9.332;2023-06-10T12:57:02;30.10;1.00
20650;DHT22;10484;48.736;9.332;2023-06-10T12:59:27;30.30;1.00
20650;DHT22;10484;48.736;9.332;2023-06-10T13:01:54;30.40;1.00
20650;DHT22;10484;48.736;9.332;2023-06-10T13:04:20;30.50;1.00
20650;DHT22;10484;48.736;9.332;2023-06-10T13:06:47;30.50;1.00
20650;DHT22;10484;48.736;9.332;2023-06-10T13:09:15;30.60;1.00
20650;DHT22;10484;48.736;9.332;2023-06-10T13:11:41;30.70;1.00
20650;DHT22;10484;48.736;9.332;2023-06-10T13:14:08;30.80;1.00
20650;DHT22;10484;48.736;9.332;2023-06-10T13:16:35;30.80;1.00
20650;DHT22;10484;48.736;9.332;2023-06-10T13:19:03;30.90;1.00
20650;DHT22;10484;48.736;9.332;2023-06-10T13:21:31;31.00;1.00
20650;DHT22;10484;48.736;9.332;2023-06-10T13:23:57;31.00;1.00
20650;DHT22;10484;48.736;9.332;2023-06-10T13:26:22;30.90;1.00
20650;DHT22;10484;48.736;9.332;2023-06-10T13:28:48;31.00;1.00
20650;DHT22;10484;48.736;9.332;2023-06-10T13:31:14;30.90;1.00
20650;DHT22;10484;48.736;9.332;2023-06-10T13:33:39;30.90;1.00
20650;DHT22;10484;48.736;9.332;2023-06-10T13:36:06;30.90;1.00
20650;DHT22;10484;48.736;9.332;2023-06-10T13:38:31;30.90;1.00
20650;DHT22;10484;48.736;9.332;2023-06-10T13:40:57;31.00;1.00
20650;DHT22;10484;48.736;9.332;2023-06-10T13:43:23;31.00;1.00
20650;DHT22;10484;48.736;9.332;2023-06-10T13:45:48;31.00;1.00
20650;DHT22;10484;48.736;9.332;2023-06-10T13:48:14;31.20;1.00
20650;DHT22;10484;48.736;9.332;2023-06-10T13:50:39;31.30;1.00
20650;DHT22;10484;48.736;9.332;2023-06-10T13:53:05;31.30;1.00
20650;DHT22;10484;48.736;9.332;2023-06-10T13:55:30;31.30;1.00
20650;DHT22;10484;48.736;9.332;2023-06-10T13:57:56;31.10;1.00
20650;DHT22;10484;48.736;9.332;2023-06-10T14:00:22;31.00;1.00
20650;DHT22;10484;48.736;9.332;2023-06-10T14:02:47;31.00;1.00
20650;DHT22;10484;48.736;9.332;2023-06-10T14:05:13;31.00;1.00
20650;DHT22;10484;48.736;9.332;2023-06-10T14:07:38;31.10;1.00
20650;DHT22;10484;48.736;9.332;2023-06-10T14:10:06;31.20;1.00
20650;DHT22;10484;48.736;9.332;2023-06-10T14:12:33;31.30;1.00
20650;DHT22;10484;48.736;9.332;2023-06-10T14:14:59;31.40;1.00
20650;DHT22;10484;48.736;9.332;2023-06-10T14:17:24;31.30;1.00
20650;DHT22;10484;48.736;9.332;2023-06-10T14:19:50;31.10;1.00
20650;DHT22;10484;48.736;9.332;2023-06-10T14:22:15;30.90;1.00
20650;DHT22;10484;48.736;9.332;2023-06-10T14:24:41;30.70;1.00
20650;DHT22;10484;48.736;9.332;2023-06-10T14:27:07;30.60;1.00
20650;DHT22;10484;48.736;9.332;2023-06-10T14:29:32;30.50;1.00
20650;DHT22;10484;48.736;9.332;2023-06-10T14:31:59;30.60;1.00
20650;DHT22;10484;48.736;9.332;2023-06-10T14:34:25;30.60;1.00
20650;DHT22;10484;48.736;9.332;2023-06-10T14:36:54;30.60;1.00
20650;DHT22;10484;48.736;9.332;2023-06-10T14:39:20;30.50;1.00
20650;DHT22;10484;48.736;9.332;2023-06-10T14:41:45;30.40;1.00
20650;DHT22;10484;48.736;9.332;2023-06-10T14:44:11;30.40;1.00
20650;DHT22;10484;48.736;9.332;2023-06-10T14:46:37;30.40;1.00
20650;DHT22;10484;48.736;9.332;2023-06-10T14:49:02;30.40;1.00
20650;DHT22;10484;48.736;9.332;2023-06-10T14:51:28;30.40;1.00
20650;DHT22;10484;48.736;9.332;2023-06-10T14:53:53;30.40;1.00
20650;DHT22;10484;48.736;9.332;2023-06-10T14:56:19;30.40;1.00
20650;DHT22;10484;48.736;9.332;2023-06-10T14:58:45;30.40;1.00
20650;DHT22;10484;48.736;9.332;2023-06-10T15:01:10;30.40;1.00
20650;DHT22;10484;48.736;9.332;2023-06-10T15:03:36;30.40;1.00
20650;DHT22;10484;48.736;9.332;2023-06-10T15:06:01;30.40;1.00
20650;DHT22;10484;48.736;9.332;2023-06-10T15:08:27;30.30;1.00
20650;DHT22;10484;48.736;9.332;2023-06-10T15:10:56;30.40;1.00
20650;DHT22;10484;48.736;9.332;2023-06-10T15:13:22;30.30;1.00
20650;DHT22;10484;48.736;9.332;2023-06-10T15:15:48;30.30;1.00
20650;DHT22;10484;48.736;9.332;2023-06-10T15:18:14;30.40;1.00
20650;DHT22;10484;48.736;9.332;2023-06-10T15:20:39;30.40;1.00
20650;DHT22;10484;48.736;9.332;2023-06-10T15:23:05;30.30;1.00
20650;DHT22;10484;48.736;9.332;2023-06-10T15:25:30;30.40;1.00
20650;DHT22;10484;48.736;9.332;2023-06-10T15:27:56;30.30;1.00
20650;DHT22;10484;48.736;9.332;2023-06-10T15:30:21;30.30;1.00
20650;DHT22;10484;48.736;9.332;2023-06-10T15:32:47;30.30;1.00
20650;DHT22;10484;48.736;9.332;2023-06-10T15:35:12;30.10;1.00
20650;DHT22;10484;48.736;9.332;2023-06-10T15:37:38;30.10;1.00
20650;DHT22;10484;48.736;9.332;2023-06-10T15:40:04;30.10;1.00
20650;DHT22;10484;48.736;9.332;2023-06-10T15:42:30;30.10;1.00
20650;DHT22;10484;48.736;9.332;2023-06-10T15:44:56;30.10;1.00